createdAt,value
2022-09-02T00:04:45.423Z,0
2022-09-02T00:09:45.383Z,0
2022-09-02T00:14:45.409Z,0
2022-09-02T00:19:45.418Z,0
2022-09-02T00:24:45.413Z,0
2022-09-02T00:29:45.411Z,0
2022-09-02T00:34:45.418Z,0
2022-09-02T00:39:45.432Z,0
2022-09-02T00:44:45.405Z,0
2022-09-02T00:49:45.414Z,0
2022-09-02T00:54:45.425Z,0
2022-09-02T00:59:45.414Z,0
2022-09-02T01:04:45.414Z,0
2022-09-02T01:09:45.384Z,0
2022-09-02T01:14:45.357Z,0
2022-09-02T01:19:45.406Z,0
2022-09-02T01:24:45.399Z,0
2022-09-02T01:29:45.418Z,0
2022-09-02T01:34:45.397Z,0
2022-09-02T01:39:45.403Z,0
2022-09-02T01:44:45.396Z,0
2022-09-02T01:49:45.379Z,0
2022-09-02T01:54:45.372Z,0
2022-09-02T01:59:45.361Z,0
2022-09-02T02:04:45.388Z,0
2022-09-02T02:09:45.390Z,0
2022-09-02T02:14:45.377Z,0
2022-09-02T02:19:45.389Z,0
2022-09-02T02:24:45.365Z,0
2022-09-02T02:29:45.370Z,0
2022-09-02T02:34:45.350Z,0
2022-09-02T02:39:45.389Z,0
2022-09-02T02:44:45.340Z,0
2022-09-02T02:49:45.350Z,0
2022-09-02T02:54:45.361Z,0
2022-09-02T02:59:45.337Z,0
2022-09-02T03:04:45.332Z,0
2022-09-02T03:09:45.366Z,0
2022-09-02T03:14:45.322Z,0
2022-09-02T03:19:45.375Z,0
2022-09-02T03:24:45.368Z,0
2022-09-02T03:29:45.364Z,0
2022-09-02T03:34:45.339Z,0
2022-09-02T03:39:45.329Z,0
2022-09-02T03:44:45.350Z,0
2022-09-02T03:49:45.327Z,0
2022-09-02T03:54:45.339Z,0
2022-09-02T03:59:45.344Z,0
2022-09-02T04:04:45.347Z,0
2022-09-02T04:09:46.764Z,0
2022-09-02T04:14:45.303Z,0
2022-09-02T04:19:45.347Z,0
2022-09-02T04:24:45.321Z,0
2022-09-02T04:29:45.306Z,0
2022-09-02T04:34:45.302Z,0
2022-09-02T04:39:45.316Z,0
2022-09-02T04:44:45.300Z,1
2022-09-02T04:49:45.320Z,4
2022-09-02T04:54:45.309Z,6
2022-09-02T04:59:45.300Z,7
2022-09-02T05:04:45.333Z,9
2022-09-02T05:09:45.313Z,7
2022-09-02T05:14:45.311Z,14
2022-09-02T05:19:45.299Z,11
2022-09-02T05:24:45.300Z,13
2022-09-02T05:29:45.731Z,16
2022-09-02T05:34:45.315Z,16
2022-09-02T05:39:45.279Z,13
2022-09-02T05:44:45.289Z,14
2022-09-02T05:49:45.279Z,16
2022-09-02T05:54:45.267Z,17
2022-09-02T05:59:45.282Z,19
2022-09-02T06:04:45.299Z,19
2022-09-02T06:09:45.292Z,21
2022-09-02T06:14:45.292Z,23
2022-09-02T06:19:45.294Z,23
2022-09-02T06:24:45.274Z,25
2022-09-02T06:29:45.262Z,29
2022-09-02T06:34:45.282Z,30
2022-09-02T06:39:45.264Z,30
2022-09-02T06:44:45.270Z,33
2022-09-02T06:49:45.264Z,40
2022-09-02T06:54:45.255Z,54
2022-09-02T06:59:45.259Z,96
2022-09-02T07:04:45.271Z,102
2022-09-02T07:09:45.286Z,127
2022-09-02T07:14:45.259Z,176
2022-09-02T07:19:45.262Z,225
2022-09-02T07:24:45.256Z,280
2022-09-02T07:29:45.281Z,315
2022-09-02T07:34:45.239Z,372
2022-09-02T07:39:45.278Z,387
2022-09-02T07:44:45.233Z,400
2022-09-02T07:54:45.253Z,475
2022-09-02T07:59:45.263Z,491
2022-09-02T08:04:45.225Z,506
2022-09-02T08:09:45.218Z,519
2022-09-02T08:14:45.244Z,527
2022-09-02T08:19:45.243Z,549
2022-09-02T08:24:45.272Z,571
2022-09-02T08:29:45.239Z,590
2022-09-02T08:34:45.262Z,608
2022-09-02T08:39:45.246Z,628
2022-09-02T08:44:45.235Z,651
2022-09-02T08:49:45.237Z,673
2022-09-02T08:54:45.259Z,691
2022-09-02T08:59:45.261Z,707
2022-09-02T09:04:45.220Z,724
2022-09-02T09:09:45.206Z,740
2022-09-02T09:14:45.217Z,753
2022-09-02T09:19:45.230Z,764
2022-09-02T09:24:45.244Z,776
2022-09-02T09:29:45.229Z,784
2022-09-02T09:34:45.240Z,795
2022-09-02T09:39:45.232Z,802
2022-09-02T09:44:45.420Z,812
2022-09-02T09:49:45.196Z,819
2022-09-02T09:54:45.257Z,826
2022-09-02T09:59:45.208Z,829
2022-09-02T10:04:45.273Z,842
2022-09-02T10:09:45.214Z,850
2022-09-02T10:14:45.218Z,859
2022-09-02T10:19:45.229Z,866
2022-09-02T10:24:45.223Z,870
2022-09-02T10:29:45.224Z,869
2022-09-02T10:34:45.211Z,878
2022-09-02T10:39:45.217Z,882
2022-09-02T10:44:45.207Z,877
2022-09-02T10:49:45.215Z,872
2022-09-02T10:54:45.196Z,868
2022-09-02T10:59:45.208Z,874
2022-09-02T11:04:45.204Z,907
2022-09-02T11:09:45.201Z,540
2022-09-02T11:14:45.308Z,916
2022-09-02T11:19:45.213Z,920
2022-09-02T11:24:46.531Z,905
2022-09-02T11:29:45.184Z,905
2022-09-02T11:34:45.216Z,737
2022-09-02T11:39:56.434Z,923
2022-09-02T11:44:46.911Z,914
2022-09-02T11:49:45.218Z,885
2022-09-02T11:54:45.205Z,482
2022-09-02T11:59:45.177Z,256
2022-09-02T12:05:01.707Z,870
2022-09-02T12:14:45.201Z,290
2022-09-02T12:19:45.191Z,718
2022-09-02T12:24:45.234Z,205
2022-09-02T12:29:45.219Z,216
2022-09-02T12:34:45.175Z,256
2022-09-02T12:39:45.175Z,845
2022-09-02T12:44:45.177Z,892
2022-09-02T12:49:45.179Z,883
2022-09-02T12:54:45.168Z,877
2022-09-02T12:59:45.172Z,888
2022-09-02T13:04:45.193Z,237
2022-09-02T13:09:45.203Z,224
2022-09-02T13:14:45.206Z,326
2022-09-02T13:19:45.172Z,282
2022-09-02T13:24:45.242Z,764
2022-09-02T13:29:45.175Z,449
2022-09-02T13:34:45.168Z,566
2022-09-02T13:39:45.188Z,519
2022-09-02T13:44:45.209Z,798
2022-09-02T13:49:45.172Z,246
2022-09-02T13:54:45.171Z,217
2022-09-02T13:59:45.171Z,223
2022-09-02T14:04:45.160Z,213
2022-09-02T14:09:45.174Z,197
2022-09-02T14:14:45.179Z,193
2022-09-02T14:19:45.188Z,220
2022-09-02T14:24:45.164Z,210
2022-09-02T14:29:45.179Z,336
2022-09-02T14:34:45.196Z,415
2022-09-02T14:39:45.215Z,211
2022-09-02T14:44:45.151Z,168
2022-09-02T14:49:45.167Z,162
2022-09-02T14:54:45.149Z,165
2022-09-02T14:59:45.184Z,371
2022-09-02T15:04:45.174Z,255
2022-09-02T15:09:45.180Z,102
2022-09-02T15:14:45.181Z,95
2022-09-02T15:19:45.180Z,106
2022-09-02T15:24:45.160Z,116
2022-09-02T15:29:45.163Z,113
2022-09-02T15:34:45.145Z,110
2022-09-02T15:39:45.205Z,105
2022-09-02T15:44:45.187Z,96
2022-09-02T15:49:45.187Z,88
2022-09-02T15:54:45.175Z,96
2022-09-02T15:59:45.154Z,108
2022-09-02T16:04:45.137Z,120
2022-09-02T16:09:45.184Z,110
2022-09-02T16:14:45.147Z,87
2022-09-02T16:19:45.170Z,73
2022-09-02T16:24:45.158Z,71
2022-09-02T16:29:45.190Z,71
2022-09-02T16:34:45.128Z,66
2022-09-02T16:39:45.215Z,55
2022-09-02T16:44:45.169Z,41
2022-09-02T16:49:45.154Z,33
2022-09-02T16:54:45.176Z,27
2022-09-02T16:59:45.155Z,22
2022-09-02T17:04:45.132Z,21
2022-09-02T17:09:45.141Z,18
2022-09-02T17:14:45.224Z,20
2022-09-02T17:19:45.129Z,17
2022-09-02T17:24:45.147Z,15
2022-09-02T17:29:48.758Z,14
2022-09-02T17:34:45.142Z,11
2022-09-02T17:39:46.256Z,18
2022-09-02T17:44:45.142Z,15
2022-09-02T17:49:45.186Z,12
2022-09-02T17:54:45.145Z,10
2022-09-02T17:59:45.149Z,3
2022-09-02T18:04:45.148Z,0
2022-09-02T18:09:45.127Z,0
2022-09-02T18:14:45.163Z,0
2022-09-02T18:19:45.114Z,0
2022-09-02T18:24:45.119Z,0
2022-09-02T18:29:45.107Z,0
2022-09-02T18:34:45.158Z,0
2022-09-02T18:39:45.192Z,0
2022-09-02T18:44:45.150Z,0
2022-09-02T18:49:45.169Z,0
2022-09-02T18:54:45.112Z,0
2022-09-02T18:59:45.130Z,0
2022-09-02T19:04:45.149Z,0
2022-09-02T19:09:45.145Z,0
2022-09-02T19:14:45.190Z,0
2022-09-02T19:19:45.104Z,0
2022-09-02T19:24:45.113Z,0
2022-09-02T19:29:45.091Z,0
2022-09-02T19:34:45.094Z,0
2022-09-02T19:39:45.228Z,0
2022-09-02T19:44:45.094Z,0
2022-09-02T19:49:45.132Z,0
2022-09-02T19:54:45.124Z,0
2022-09-02T19:59:45.123Z,0
2022-09-02T20:04:45.099Z,0
2022-09-02T20:09:45.085Z,0
2022-09-02T20:14:45.119Z,0
2022-09-02T20:19:45.226Z,0
2022-09-02T20:24:45.121Z,0
2022-09-02T20:29:45.087Z,0
2022-09-02T20:34:45.092Z,0
2022-09-02T20:39:45.152Z,0
2022-09-02T20:44:45.098Z,0
2022-09-02T20:49:45.083Z,0
2022-09-02T20:54:45.107Z,0
2022-09-02T20:59:45.112Z,0
2022-09-02T21:04:45.076Z,0
2022-09-02T21:09:45.110Z,0
2022-09-02T21:14:45.083Z,0
2022-09-02T21:19:45.072Z,0
2022-09-02T21:24:45.059Z,0
2022-09-02T21:29:45.103Z,0
2022-09-02T21:34:45.103Z,0
2022-09-02T21:39:45.132Z,0
2022-09-02T21:44:45.108Z,0
2022-09-02T21:49:45.092Z,0
2022-09-02T21:54:45.041Z,0
2022-09-02T21:59:45.082Z,0
2022-09-02T22:04:45.062Z,0
2022-09-02T22:09:45.068Z,0
2022-09-02T22:14:45.065Z,0
2022-09-02T22:19:45.055Z,0
2022-09-02T22:24:45.059Z,0
2022-09-02T22:29:45.082Z,0
2022-09-02T22:34:45.073Z,0
2022-09-02T22:39:45.135Z,0
2022-09-02T22:44:45.064Z,0
2022-09-02T22:49:45.064Z,0
2022-09-02T22:54:45.087Z,0
2022-09-02T22:59:45.025Z,0
2022-09-02T23:04:45.068Z,0
2022-09-02T23:09:45.046Z,0
2022-09-02T23:14:45.036Z,0
2022-09-02T23:19:45.051Z,0
2022-09-02T23:24:45.073Z,0
2022-09-02T23:29:45.059Z,0
2022-09-02T23:34:45.034Z,0
2022-09-02T23:39:45.074Z,0
2022-09-02T23:44:45.027Z,0
2022-09-02T23:49:45.050Z,0
2022-09-02T23:54:45.947Z,0
2022-09-02T23:59:45.154Z,0
